D/T METAR WX W/DIR W/SPE G/SPE TEMP DEWP
20/06/19 15:30 EIKY 201430Z 29007KT 240V330 9999 RA BKN033 12/09 Q1014 RA WNW (290°) 8.1mph 12°C 9°C
20/06/19 15:00 EIKY 201400Z 27006KT 230V310 9999 -RA SCT029 BKN033 12/09 Q1014 -RA W (270°) 6.9mph 12°C 9°C
20/06/19 14:30 EIKY 201330Z 29007KT 250V020 9999 -RA BKN030 12/09 Q1014 -RA WNW (290°) 8.1mph 12°C 9°C
20/06/19 14:00 EIKY 201300Z 27004KT 220V330 9999 -RA FEW030 BKN038 13/09 Q1013 -RA W (270°) 4.6mph 13°C 9°C
20/06/19 13:30 EIKY 201230Z 28006KT 240V330 9999 -RA SCT024 BKN031 12/09 Q1013 -RA W (280°) 6.9mph 12°C 9°C
20/06/19 13:00 EIKY 201200Z 30006KT 250V340 9999 SCT030 13/08 Q1013 WNW (300°) 6.9mph 13°C 8°C
20/06/19 12:30 EIKY 201130Z 27005KT 230V320 9999 FEW040 13/08 Q1013 W (270°) 5.8mph 13°C 8°C
20/06/19 12:00 EIKY 201100Z 30006KT 250V340 8000 -RA FEW020 BKN035 11/08 Q1013 -RA WNW (300°) 6.9mph 11°C 8°C
20/06/19 11:30 EIKY 201030Z 28006KT 250V320 9999 BKN030 13/07 Q1013 W (280°) 6.9mph 13°C 7°C
20/06/19 10:30 EIKY 200930Z 26010KT 230V310 9999 SCT030 14/07 Q1012 W (260°) 11.5mph 14°C 7°C
20/06/19 09:30 EIKY 200830Z 27006KT 230V300 9999 FEW022 SCT030 12/08 Q1012 W (270°) 6.9mph 12°C 8°C
20/06/19 08:30 EIKY 200730Z VRB02KT 9999 SCT049 11/10 Q1012 N (0°) 2.3mph 11°C 10°C
20/06/19 08:00 EIKY 200700Z 27003KT 250V330 9999 FEW020 BKN041 10/09 Q1012 W (270°) 3.5mph 10°C 9°C
20/06/19 07:30 EIKY 200630Z VRB02KT 9999 FEW020 SCT030 09/08 Q1012 N (0°) 2.3mph 9°C 8°C
20/06/19 07:00 EIKY 200600Z 27003KT 240V330 9999 FEW005 SCT032 09/08 Q1012 W (270°) 3.5mph 9°C 8°C
19/06/19 20:00 EIKY 191900Z 26011KT 240V300 9999 -RA SCT019 BNN030 13/09 Q1010 -RA W (260°) 12.7mph 13°C 9°C
19/06/19 19:30 EIKY 191830Z 26011KT 9999 FEW020 SCT047 14/09 Q1010 W (260°) 12.7mph 14°C 9°C
19/06/19 19:00 EIKY 191800Z 26012KT 230V300 9999 SCT024 BKN036 14/09 Q1010 W (260°) 13.8mph 14°C 9°C
19/06/19 18:30 EIKY 191730Z 26012KT 240V310 9999 FEW024 SCT034 14/09 Q1010 W (260°) 13.8mph 14°C 9°C
19/06/19 17:30 EIKY 191630Z 27013G23KT 240V300 9999 SCT034 15/09 Q1010 W (270°) 15.0mph 26.5mph 15°C 9°C
19/06/19 17:00 EIKY 191600Z 27010KT 240V310 9999 FEW022 BKN030 15/09 Q1010 W (270°) 11.5mph 15°C 9°C
19/06/19 16:00 EIKY 191500Z 27013KT 240V320 9999 SCT026 SCT036 16/10 Q1010 W (270°) 15.0mph 16°C 10°C
19/06/19 15:30 EIKY 191430Z 28009KT 240V330 9999 SCT021 SCT025 BKN035 16/10 Q1010 W (280°) 10.4mph 16°C 10°C
19/06/19 15:00 EIKY 191400Z 27008KT 240V310 9999 SCT037 15/10 Q1011 W (270°) 9.2mph 15°C 10°C
19/06/19 14:30 EIKY 191330Z 33006KT 300V060 9999 SCT014 BKN023 14/11 Q1011 NNW (330°) 6.9mph 14°C 11°C
19/06/19 13:30 EIKY 191230Z 32005KT 270V360 9999 SCT018 BKN022 14/11 Q1011 NW (320°) 5.8mph 14°C 11°C
19/06/19 13:00 EIKY 191200Z 32006KT 280V350 9999 -RA FEW018CB BKN025 13/11 Q1011 -RA NW (320°) 6.9mph 13°C 11°C
19/06/19 12:30 EIKY 191130Z 29005KT 230V350 9999 FEW018 BKN023 14/10 Q1011 WNW (290°) 5.8mph 14°C 10°C
19/06/19 12:00 EIKY 191100Z 27005KT 240V330 9999 -RA FEW018CB SCT027 14/11 Q1011 -RA W (270°) 5.8mph 14°C 11°C
19/06/19 11:30 EIKY 191030Z 25007KT 220V300 9999 FEW025CB SCT033 14/11 Q1011 WSW (250°) 8.1mph 14°C 11°C
19/06/19 11:00 EIKY 191000Z 26007KT 240V320 9999 -RA FEW018CB SCT025 BKN036 13/11 Q1011 -RA W (260°) 8.1mph 13°C 11°C
19/06/19 10:30 EIKY 190930Z 29004KT 250V340 9999 FEW014 SCT025CB BKN028 13/11 Q1011 WNW (290°) 4.6mph 13°C 11°C
19/06/19 10:00 EIKY 190900Z 26004KT 220V330 9999 FEW010 FEW025CB SCT035 14/11 Q1011 W (260°) 4.6mph 14°C 11°C
19/06/19 09:30 EIKY 190830Z 27003KT 240V320 9999 FEW020 SCT030 BKN047 12/11 Q1011 W (270°) 3.5mph 12°C 11°C
19/06/19 09:00 EIKY 190800Z VRB02KT 9999 FEW020 SCT035 OVC042 11/10 Q1011 N (0°) 2.3mph 11°C 10°C
19/06/19 08:00 EIKY 190700Z 00000KT 9999 FEW028 BKN034 09/08 Q1011 N (0°) 9°C 8°C
19/06/19 07:30 EIKY 190630Z 00000KT 9999 SCT029 BKN041 08/07 Q1011 N (0°) 8°C 7°C
19/06/19 06:30 EIKY 190530Z VRB01KT 9999 FEW026 SCT030 05/04 Q1011 N (0°) 1.2mph 5°C 4°C
19/06/19 06:00 EIKY 190500Z VRB01KT 9999 FEW040 SCT055 05/04 Q1011 N (0°) 1.2mph 5°C 4°C
18/06/19 19:30 EIKY 181830Z 31006KT 280V340 9999 FEW045 14/09 Q1012 NW (310°) 6.9mph 14°C 9°C
18/06/19 19:00 EIKY 181800Z 31008KT 260V350 9999 FEW028 BKN041 15/10 Q1012 NW (310°) 9.2mph 15°C 10°C
18/06/19 18:30 EIKY 181730Z 32007KT 270V360 9999 FEW027 SCT037 BKN049 15/10 Q1012 NW (320°) 8.1mph 15°C 10°C
18/06/19 18:00 EIKY 181700Z 31007KT 270V340 9999 SCT030 16/10 Q1011 NW (310°) 8.1mph 16°C 10°C
18/06/19 17:00 EIKY 181600Z 31007KT 270V360 9999 FEW025 SCT035 16/10 Q1011 NW (310°) 8.1mph 16°C 10°C
18/06/19 16:00 EIKY 181500Z 32006KT 260V360 9999 FEW026 SCT043 17/11 Q1012 NW (320°) 6.9mph 17°C 11°C
18/06/19 15:30 EIKY 181430Z 32006KT 280V010 9999 FEW032 SCT038 16/10 Q1012 NW (320°) 6.9mph 16°C 10°C
18/06/19 15:00 EIKY 181400Z 33007KT 280V010 9999 SCT027 BKN031 17/10 Q1012 NNW (330°) 8.1mph 17°C 10°C
18/06/19 14:30 EIKY 181330Z 32005KT 260V030 9999 BKN028 BKN032 17/08 Q1012 NW (320°) 5.8mph 17°C 8°C